createdAt,value
2023-01-08T00:01:26.102Z,99443.53
2023-01-08T00:06:28.390Z,99454.78
2023-01-08T00:11:30.685Z,99432.88
2023-01-08T00:16:32.953Z,99440.47
2023-01-08T00:21:35.397Z,99426.72
2023-01-08T00:26:37.570Z,99415.13
2023-01-08T00:31:39.816Z,99414.13
2023-01-08T00:36:42.062Z,99427.41
2023-01-08T00:41:45.489Z,99408.47
2023-01-08T00:46:47.847Z,99411.22
2023-01-08T00:51:49.955Z,99402.59
2023-01-08T00:56:52.317Z,99409.22
2023-01-08T01:01:54.640Z,99400.09
2023-01-08T01:06:57.074Z,99401.06
2023-01-08T01:11:59.223Z,99385.47
2023-01-08T01:17:01.550Z,99374.09
2023-01-08T01:22:03.878Z,99375.75
2023-01-08T01:27:06.093Z,99379.06
2023-01-08T01:32:10.306Z,99396.19
2023-01-08T01:37:13.221Z,99394.84
2023-01-08T01:42:35.928Z,99380.38
2023-01-08T01:47:39.750Z,99388.91
2023-01-08T01:52:56.000Z,99390.41
2023-01-08T01:58:16.519Z,99383.19
2023-01-08T02:03:23.094Z,99389.63
2023-01-08T02:08:41.111Z,99390.75
2023-01-08T02:13:49.153Z,99397.50
2023-01-08T02:18:57.469Z,99385.13
2023-01-08T02:24:13.553Z,99366.22
2023-01-08T02:29:21.108Z,99374.13
2023-01-08T02:34:23.254Z,99355.03
2023-01-08T02:39:46.344Z,99360.63
2023-01-08T02:45:18.941Z,99341.88
2023-01-08T02:50:21.116Z,99335.44
2023-01-08T02:55:24.924Z,99340.41
2023-01-08T03:00:27.691Z,99317.97
2023-01-08T03:05:30.080Z,99304.19
2023-01-08T03:10:37.801Z,99294.47
2023-01-08T03:15:47.266Z,99284.63
2023-01-08T03:20:49.813Z,99274.59
2023-01-08T03:25:52.060Z,99269.97
2023-01-08T03:30:54.480Z,99274.13
2023-01-08T03:35:58.366Z,99285.13
2023-01-08T03:41:07.643Z,99282.31
2023-01-08T03:46:14.360Z,99271.81
2023-01-08T03:51:18.838Z,99269.19
2023-01-08T03:56:20.872Z,99261.97
2023-01-08T04:01:23.027Z,99254.53
2023-01-08T04:06:25.295Z,99266.84
2023-01-08T04:11:27.495Z,99250.59
2023-01-08T04:16:29.784Z,99251.25
2023-01-08T04:21:32.095Z,99251.09
2023-01-08T04:26:34.213Z,99254.38
2023-01-08T04:31:36.452Z,99248.44
2023-01-08T04:36:39.563Z,99244.97
2023-01-08T04:41:41.639Z,99243.34
2023-01-08T04:46:43.722Z,99225.38
2023-01-08T04:51:46.005Z,99226.75
2023-01-08T04:56:51.687Z,99225.75
2023-01-08T05:01:53.864Z,99219.53
2023-01-08T05:06:57.088Z,99234.16
2023-01-08T05:11:59.366Z,99229.19
2023-01-08T05:17:01.606Z,99211.63
2023-01-08T05:22:03.813Z,99213.44
2023-01-08T05:27:06.214Z,99197.16
2023-01-08T05:32:15.656Z,99224.47
2023-01-08T05:37:17.774Z,99218.19
2023-01-08T05:42:19.858Z,99196.16
2023-01-08T05:47:22.444Z,99203.75
2023-01-08T05:52:25.153Z,99192.25
2023-01-08T05:57:27.163Z,99207.34
2023-01-08T06:02:29.214Z,99204.56
2023-01-08T06:07:31.479Z,99212.28
2023-01-08T06:12:33.751Z,99205.84
2023-01-08T06:17:36.073Z,99208.53
2023-01-08T06:22:38.263Z,99211.63
2023-01-08T06:27:40.749Z,99206.38
2023-01-08T06:32:43.065Z,99198.81
2023-01-08T06:37:45.295Z,99210.81
2023-01-08T06:42:47.597Z,99203.56
2023-01-08T06:47:49.831Z,99217.69
2023-01-08T06:52:53.987Z,99209.97
2023-01-08T06:57:58.462Z,99203.19
2023-01-08T07:03:00.879Z,99189.22
2023-01-08T07:08:03.023Z,99202.41
2023-01-08T07:13:05.408Z,99203.59
2023-01-08T07:18:10.771Z,99207.69
2023-01-08T07:23:12.946Z,99216.75
2023-01-08T07:28:15.065Z,99224.69
2023-01-08T07:33:17.145Z,99243.19
2023-01-08T07:38:19.391Z,99298.97
2023-01-08T07:43:21.733Z,99287.06
2023-01-08T07:48:24.078Z,99269.13
2023-01-08T07:53:26.109Z,99259.38
2023-01-08T07:58:28.407Z,99248.47
2023-01-08T08:03:30.911Z,99272.00
2023-01-08T08:08:33.130Z,99274.94
2023-01-08T08:13:35.442Z,99280.25
2023-01-08T08:18:37.576Z,99271.78
2023-01-08T08:23:39.658Z,99272.63
2023-01-08T08:28:41.849Z,99256.34
2023-01-08T08:33:43.933Z,99253.97
2023-01-08T08:38:46.090Z,99238.78
2023-01-08T08:43:51.376Z,99244.97
2023-01-08T08:48:53.934Z,99232.06
2023-01-08T08:53:56.182Z,99230.28
2023-01-08T08:58:58.451Z,99241.88
2023-01-08T09:04:00.811Z,99248.78
2023-01-08T09:09:03.388Z,99238.81
2023-01-08T09:14:05.695Z,99237.63
2023-01-08T09:19:09.694Z,99230.16
2023-01-08T09:24:11.958Z,99236.53
2023-01-08T09:29:14.307Z,99242.19
2023-01-08T09:34:16.681Z,99234.38
2023-01-08T09:39:19.172Z,99228.88
2023-01-08T09:44:24.608Z,99240.22
2023-01-08T09:49:41.015Z,99229.50
2023-01-08T09:54:43.451Z,99217.53
2023-01-08T09:59:50.538Z,99218.38
2023-01-08T10:05:00.203Z,99216.09
2023-01-08T10:10:02.307Z,99203.25
2023-01-08T10:15:06.773Z,99207.50
2023-01-08T10:20:14.905Z,99198.31
2023-01-08T10:25:24.318Z,99200.78
2023-01-08T10:30:35.543Z,99183.84
2023-01-08T10:35:39.500Z,99174.00
2023-01-08T10:40:48.718Z,99177.59
2023-01-08T10:45:59.728Z,99170.50
2023-01-08T10:51:29.258Z,99147.44
2023-01-08T10:56:41.786Z,99141.34
2023-01-08T11:01:47.543Z,99130.81
2023-01-08T11:06:50.203Z,99118.53
2023-01-08T11:11:52.386Z,99109.63
2023-01-08T11:16:55.063Z,99106.78
2023-01-08T11:22:24.497Z,99095.59
2023-01-08T11:27:33.399Z,99087.16
2023-01-08T11:33:03.175Z,99082.91
2023-01-08T11:38:06.992Z,99068.34
2023-01-08T11:43:37.734Z,99063.00
2023-01-08T11:48:53.813Z,99045.28
2023-01-08T11:54:20.301Z,99047.41
2023-01-08T11:59:44.491Z,99025.13
2023-01-08T12:04:46.740Z,99023.13
2023-01-08T12:09:57.523Z,99016.41
2023-01-08T12:15:07.580Z,99015.47
2023-01-08T12:20:23.956Z,98994.81
2023-01-08T12:25:42.145Z,98983.13
2023-01-08T12:31:06.970Z,98971.75
2023-01-08T12:36:11.352Z,98952.69
2023-01-08T12:41:17.370Z,98953.78
2023-01-08T12:46:20.574Z,98945.00
2023-01-08T12:51:34.573Z,98953.25
2023-01-08T12:56:55.030Z,98934.72
2023-01-08T13:02:01.318Z,98925.09
2023-01-08T13:07:05.173Z,98921.22
2023-01-08T13:12:07.455Z,98932.28
2023-01-08T13:17:19.568Z,98959.91
2023-01-08T13:22:31.234Z,98950.84
2023-01-08T13:27:33.441Z,98970.75
2023-01-08T13:32:42.305Z,98959.81
2023-01-08T13:37:51.020Z,98941.38
2023-01-08T13:42:53.314Z,98929.19
2023-01-08T13:47:55.792Z,98925.25
2023-01-08T13:52:59.630Z,98927.53
2023-01-08T13:58:08.847Z,98924.91
2023-01-08T14:03:30.301Z,98909.81
2023-01-08T14:08:33.188Z,98925.97
2023-01-08T14:13:35.742Z,98918.22
2023-01-08T14:18:40.874Z,98918.63
2023-01-08T14:23:46.668Z,98914.50
2023-01-08T14:28:52.734Z,98906.47
2023-01-08T14:33:56.921Z,98892.13
2023-01-08T14:38:59.108Z,98899.00
2023-01-08T14:44:01.206Z,98890.78
2023-01-08T14:49:03.425Z,98880.09
2023-01-08T14:54:06.614Z,98885.59
2023-01-08T14:59:12.204Z,98884.72
2023-01-08T15:04:17.958Z,98881.47
2023-01-08T15:09:23.804Z,98878.78
2023-01-08T15:14:28.521Z,98874.41
2023-01-08T15:19:32.615Z,98863.91
2023-01-08T15:24:39.913Z,98872.59
2023-01-08T15:29:51.193Z,98875.00
2023-01-08T15:34:53.304Z,98871.22
2023-01-08T15:39:55.382Z,98865.13
2023-01-08T15:44:57.601Z,98864.91
2023-01-08T15:49:59.912Z,98876.25
2023-01-08T15:55:02.129Z,98862.00
2023-01-08T16:00:04.828Z,98852.44
2023-01-08T16:05:07.839Z,98852.44
2023-01-08T16:10:10.200Z,98851.56
2023-01-08T16:15:13.530Z,98847.72
2023-01-08T16:20:16.900Z,98858.72
2023-01-08T16:25:19.151Z,98841.75
2023-01-08T16:30:22.299Z,98838.63
2023-01-08T16:35:24.499Z,98839.97
2023-01-08T16:40:26.578Z,98832.91
2023-01-08T16:45:28.808Z,98834.41
2023-01-08T16:50:32.421Z,98822.09
2023-01-08T16:55:37.832Z,98839.34
2023-01-08T17:00:40.594Z,98829.66
2023-01-08T17:05:42.769Z,98819.91
2023-01-08T17:10:45.145Z,98828.41
2023-01-08T17:15:47.497Z,98826.34
2023-01-08T17:20:53.746Z,98825.09
2023-01-08T17:26:00.506Z,98825.38
2023-01-08T17:31:06.566Z,98809.34
2023-01-08T17:36:34.141Z,98808.09
2023-01-08T17:41:54.805Z,98797.25
2023-01-08T17:46:57.213Z,98802.75
2023-01-08T17:51:59.749Z,98794.91
2023-01-08T17:57:02.009Z,98795.31
2023-01-08T18:02:04.343Z,98787.97
2023-01-08T18:07:06.562Z,98780.44
2023-01-08T18:12:08.723Z,98786.06
2023-01-08T18:17:11.008Z,98781.41
2023-01-08T18:22:13.309Z,98765.34
2023-01-08T18:27:15.598Z,98769.31
2023-01-08T18:32:22.322Z,98762.91
2023-01-08T18:37:24.847Z,98764.84
2023-01-08T18:42:27.291Z,98753.75
2023-01-08T18:47:30.898Z,98754.94
2023-01-08T18:52:33.002Z,98742.19
2023-01-08T18:57:35.214Z,98732.97
2023-01-08T19:02:37.984Z,98730.09
2023-01-08T19:07:41.363Z,98723.28
2023-01-08T19:12:44.758Z,98710.28
2023-01-08T19:17:47.094Z,98698.69
2023-01-08T19:22:51.536Z,98691.78
2023-01-08T19:27:53.741Z,98684.25
2023-01-08T19:32:56.033Z,98685.91
2023-01-08T19:37:58.446Z,98674.69
2023-01-08T19:43:19.443Z,98657.47
2023-01-08T19:48:21.901Z,98650.75
2023-01-08T19:53:24.466Z,98654.78
2023-01-08T19:58:29.305Z,98652.09
2023-01-08T20:03:33.831Z,98647.91
2023-01-08T20:08:36.147Z,98643.13
2023-01-08T20:13:39.023Z,98641.44
2023-01-08T20:18:41.328Z,98644.72
2023-01-08T20:23:44.784Z,98627.94
2023-01-08T20:28:47.438Z,98613.56
2023-01-08T20:33:49.701Z,98612.53
2023-01-08T20:38:54.100Z,98614.44
2023-01-08T20:43:56.490Z,98609.69
2023-01-08T20:49:05.105Z,98594.22
2023-01-08T20:54:09.303Z,98589.25
2023-01-08T20:59:11.582Z,98580.19
2023-01-08T21:04:13.825Z,98573.88
2023-01-08T21:09:17.905Z,98562.34
2023-01-08T21:14:20.028Z,98551.59
2023-01-08T21:19:22.346Z,98548.56
2023-01-08T21:24:24.453Z,98545.19
2023-01-08T21:29:27.157Z,98524.81
2023-01-08T21:34:29.294Z,98519.19
2023-01-08T21:39:33.003Z,98521.81
2023-01-08T21:44:53.978Z,98499.22
2023-01-08T21:49:56.311Z,98493.16
2023-01-08T21:54:58.576Z,98489.50
2023-01-08T22:00:02.849Z,98476.91
2023-01-08T22:05:07.882Z,98463.50
2023-01-08T22:10:10.937Z,98454.97
2023-01-08T22:15:13.325Z,98446.53
2023-01-08T22:20:15.935Z,98437.50
2023-01-08T22:25:18.015Z,98435.06
2023-01-08T22:30:21.421Z,98433.06
2023-01-08T22:35:23.685Z,98428.69
2023-01-08T22:40:26.348Z,98411.53
2023-01-08T22:45:30.515Z,98394.19
2023-01-08T22:50:32.619Z,98404.09
2023-01-08T22:55:34.737Z,98398.59
2023-01-08T23:00:38.257Z,98385.16
2023-01-08T23:05:42.015Z,98382.03
2023-01-08T23:10:44.172Z,98382.81
2023-01-08T23:15:46.259Z,98381.66
2023-01-08T23:20:49.393Z,98385.09
2023-01-08T23:25:51.635Z,98389.28
2023-01-08T23:30:53.920Z,98389.53
2023-01-08T23:35:56.022Z,98374.03
2023-01-08T23:40:59.909Z,98379.50
2023-01-08T23:46:04.002Z,98378.19
2023-01-08T23:51:06.164Z,98382.03
2023-01-08T23:56:08.486Z,98375.16
